MMIO

Plan De Guadalupe International Airport

Saltillo, Mexico
TAF MMIO 150450Z 1506/1606 04006KT P6SM SKC FM151800 02016KT P6SM SCT040 BKN250 FM160500 04006KT P6SM SKC
Issued Valid From Valid To
Aug-15 @ 04:50 UTC
(8 hours ago)
Aug-15 @ 06:00 UTC
(7 hours ago)
Aug-16 @ 06:00 UTC
(in 17 hours)
Aug-15 @ 06:00 to Aug-15 @ 18:00
TAF MMIO 150450Z 1506/1606 04006KT P6SM SKC
Wind Visibility Clouds
40° at 6 knots Greater than 6 miles
  • Clear skies
From Aug-15 @ 18:00 to Aug-16 @ 05:00
FM151800 02016KT P6SM SCT040 BKN250
Wind Visibility Clouds
20° at 16 knots Greater than 6 miles
  • Scattered at 4,000' AGL
  • Broken at 25,000' AGL
From Aug-16 @ 05:00 to Aug-16 @ 06:00
FM160500 04006KT P6SM SKC
Wind Visibility Clouds
40° at 6 knots Greater than 6 miles
  • Clear skies
TAF MMIO 150450Z 1506/1606 04006KT P6SM SKC FM151800 02016KT P6SM SCT040 BKN250 FM160500 04006KT P6SM SKC
Issued Aug-15 @ 04:50 UTC
(8 hours ago)
Valid From Aug-15 @ 06:00 UTC
(7 hours ago)
Valid To Aug-16 @ 06:00 UTC
(in 17 hours)
Aug-15 @ 06:00 - Aug-15 @ 18:00
Wind Visibility
40° at 6 knots Greater than 6 miles
Clouds
  • Clear skies
From Aug-15 @ 18:00 - Aug-16 @ 05:00
Wind Visibility
20° at 16 knots Greater than 6 miles
Clouds
  • Scattered at 4,000' AGL
  • Broken at 25,000' AGL
From Aug-16 @ 05:00 - Aug-16 @ 06:00
Wind Visibility
40° at 6 knots Greater than 6 miles
Clouds
  • Clear skies